createdAt,value
2018-08-10T00:00:07.983Z,0.00
2018-08-10T00:01:07.981Z,0.00
2018-08-10T00:02:07.980Z,0.00
2018-08-10T00:03:07.973Z,0.00
2018-08-10T00:04:07.966Z,0.00
2018-08-10T00:05:07.962Z,0.00
2018-08-10T00:06:07.958Z,0.00
2018-08-10T00:07:07.960Z,0.00
2018-08-10T00:08:07.956Z,0.00
2018-08-10T00:09:07.957Z,0.00
2018-08-10T00:10:07.942Z,0.00
2018-08-10T00:11:07.944Z,0.00
2018-08-10T00:12:07.947Z,0.00
2018-08-10T00:13:07.942Z,0.00
2018-08-10T00:14:07.933Z,0.00
2018-08-10T00:15:07.927Z,0.00
2018-08-10T00:16:07.919Z,0.00
2018-08-10T00:17:07.918Z,0.00
2018-08-10T00:18:07.916Z,0.00
2018-08-10T00:19:07.908Z,0.00
2018-08-10T00:20:07.905Z,0.00
2018-08-10T00:21:07.911Z,0.00
2018-08-10T00:22:07.920Z,0.00
2018-08-10T00:23:07.889Z,0.00
2018-08-10T00:24:07.894Z,0.00
2018-08-10T00:25:07.884Z,0.00
2018-08-10T00:26:08.799Z,0.00
2018-08-10T00:27:07.883Z,0.00
2018-08-10T00:28:07.880Z,0.00
2018-08-10T00:29:07.870Z,0.00
2018-08-10T00:30:07.867Z,0.00
2018-08-10T00:31:07.883Z,0.00
2018-08-10T00:32:07.850Z,0.00
2018-08-10T00:33:07.873Z,0.00
2018-08-10T00:34:07.845Z,0.00
2018-08-10T00:35:08.787Z,0.00
2018-08-10T00:36:07.837Z,0.00
2018-08-10T00:37:07.837Z,0.00
2018-08-10T00:38:07.843Z,0.00
2018-08-10T00:39:07.833Z,0.00
2018-08-10T00:40:07.836Z,0.00
2018-08-10T00:41:07.833Z,0.00
2018-08-10T00:42:07.816Z,0.00
2018-08-10T00:43:07.802Z,0.00
2018-08-10T00:44:07.809Z,0.00
2018-08-10T00:45:07.810Z,0.00
2018-08-10T00:46:07.816Z,0.00
2018-08-10T00:47:07.807Z,0.00
2018-08-10T00:48:07.842Z,0.00
2018-08-10T00:49:07.796Z,0.00
2018-08-10T00:50:07.799Z,0.00
2018-08-10T00:51:07.792Z,0.00
2018-08-10T00:52:07.807Z,0.00
2018-08-10T00:53:07.771Z,0.00
2018-08-10T00:54:07.770Z,0.00
2018-08-10T00:55:07.772Z,0.00
2018-08-10T00:56:07.762Z,0.00
2018-08-10T00:57:07.758Z,0.00
2018-08-10T00:58:08.314Z,0.00
2018-08-10T00:59:07.752Z,0.00
2018-08-10T01:00:07.732Z,0.00
2018-08-10T01:01:07.726Z,0.00
2018-08-10T01:02:07.724Z,0.00
2018-08-10T01:03:07.722Z,0.00
2018-08-10T01:04:07.718Z,0.00
2018-08-10T01:05:07.719Z,0.00
2018-08-10T01:06:07.707Z,0.00
2018-08-10T01:07:07.706Z,0.00
2018-08-10T01:08:07.700Z,0.00
2018-08-10T01:09:07.694Z,0.00
2018-08-10T01:10:07.687Z,0.00
2018-08-10T01:11:07.684Z,0.00
2018-08-10T01:12:07.677Z,0.00
2018-08-10T01:13:07.753Z,0.00
2018-08-10T01:14:07.684Z,0.00
2018-08-10T01:15:07.663Z,0.00
2018-08-10T01:16:07.667Z,0.00
2018-08-10T01:17:07.665Z,0.00
2018-08-10T01:18:07.657Z,0.00
2018-08-10T01:19:07.744Z,0.00
2018-08-10T01:20:07.645Z,0.00
2018-08-10T01:21:07.643Z,0.00
2018-08-10T01:22:07.638Z,0.00
2018-08-10T01:23:07.639Z,0.00
2018-08-10T01:24:07.625Z,0.00
2018-08-10T01:25:07.621Z,0.00
2018-08-10T01:26:07.614Z,0.00
2018-08-10T01:27:07.624Z,0.00
2018-08-10T01:28:07.611Z,0.00
2018-08-10T01:29:07.608Z,0.00
2018-08-10T01:30:07.600Z,0.00
2018-08-10T01:31:07.595Z,0.00
2018-08-10T01:32:07.599Z,0.00
2018-08-10T01:33:07.583Z,0.00
2018-08-10T01:34:07.582Z,0.00
2018-08-10T01:35:07.593Z,0.00
2018-08-10T01:36:07.594Z,0.00
2018-08-10T01:37:07.574Z,0.00
2018-08-10T01:38:07.564Z,0.00
2018-08-10T01:39:07.568Z,0.00
2018-08-10T01:40:07.553Z,0.00
2018-08-10T01:41:07.558Z,0.00
2018-08-10T01:42:07.547Z,0.00
2018-08-10T01:43:07.543Z,0.00
2018-08-10T01:44:07.545Z,0.00
2018-08-10T01:45:07.544Z,0.00
2018-08-10T01:46:07.546Z,0.00
2018-08-10T01:47:07.527Z,0.00
2018-08-10T01:48:07.528Z,0.00
2018-08-10T01:49:07.517Z,0.00
2018-08-10T01:50:07.513Z,0.00
2018-08-10T01:51:07.503Z,0.00
2018-08-10T01:52:07.500Z,0.00
2018-08-10T01:53:07.509Z,0.00
2018-08-10T01:54:07.500Z,0.00
2018-08-10T01:55:07.491Z,0.00
2018-08-10T01:56:07.486Z,0.00
2018-08-10T01:57:07.487Z,0.00
2018-08-10T01:58:07.474Z,0.00
2018-08-10T01:59:07.477Z,0.00
2018-08-10T02:00:07.465Z,0.00
2018-08-10T02:01:07.461Z,0.00
2018-08-10T02:02:07.456Z,0.00
2018-08-10T02:03:07.456Z,0.00
2018-08-10T02:04:07.448Z,0.00
2018-08-10T02:05:07.443Z,0.00
2018-08-10T02:06:07.438Z,0.00
2018-08-10T02:07:07.432Z,0.00
2018-08-10T02:08:07.430Z,0.00
2018-08-10T02:09:07.424Z,0.00
2018-08-10T02:10:08.337Z,0.00
2018-08-10T02:11:07.416Z,0.00
2018-08-10T02:12:07.417Z,0.00
2018-08-10T02:13:07.403Z,0.00
2018-08-10T02:14:07.411Z,0.00
2018-08-10T02:15:07.406Z,0.00
2018-08-10T02:16:07.393Z,0.00
2018-08-10T02:17:07.391Z,0.00
2018-08-10T02:18:07.392Z,0.00
2018-08-10T02:19:07.388Z,0.00
2018-08-10T02:20:07.381Z,0.00
2018-08-10T02:21:07.372Z,0.00
2018-08-10T02:22:07.379Z,0.00
2018-08-10T02:23:07.363Z,0.00
2018-08-10T02:24:07.366Z,0.00
2018-08-10T02:25:07.352Z,0.00
2018-08-10T02:26:07.349Z,0.00
2018-08-10T02:27:07.343Z,0.00
2018-08-10T02:28:07.347Z,0.00
2018-08-10T02:29:07.337Z,0.00
2018-08-10T02:30:07.336Z,0.00
2018-08-10T02:31:07.335Z,0.00
2018-08-10T02:32:07.328Z,0.00
2018-08-10T02:33:07.327Z,0.00
2018-08-10T02:34:07.319Z,0.00
2018-08-10T02:35:07.308Z,0.00
2018-08-10T02:36:07.310Z,0.00
2018-08-10T02:37:07.298Z,0.00
2018-08-10T02:38:07.299Z,0.00
2018-08-10T02:39:07.294Z,0.00
2018-08-10T02:40:07.292Z,0.00
2018-08-10T02:41:07.288Z,0.00
2018-08-10T02:42:07.294Z,0.00
2018-08-10T02:43:07.271Z,0.00
2018-08-10T02:44:07.266Z,0.00
2018-08-10T02:45:07.270Z,0.00
2018-08-10T02:46:07.264Z,0.00
2018-08-10T02:47:07.254Z,0.00
2018-08-10T02:48:07.251Z,0.00
2018-08-10T02:49:07.245Z,0.00
2018-08-10T02:50:07.241Z,0.00
2018-08-10T02:51:07.238Z,0.00
2018-08-10T02:52:07.854Z,0.00
2018-08-10T02:53:07.224Z,0.00
2018-08-10T02:54:07.231Z,0.00
2018-08-10T02:55:07.215Z,0.00
2018-08-10T02:56:07.213Z,0.00
2018-08-10T02:57:07.207Z,0.00
2018-08-10T02:58:07.212Z,0.00
2018-08-10T02:59:07.200Z,0.00
2018-08-10T03:00:07.200Z,0.00
2018-08-10T03:01:07.865Z,0.00
2018-08-10T03:02:07.190Z,0.00
2018-08-10T03:03:07.888Z,0.00
2018-08-10T03:04:07.175Z,0.00
2018-08-10T03:05:07.169Z,0.00
2018-08-10T03:06:07.170Z,0.00
2018-08-10T03:07:07.164Z,0.00
2018-08-10T03:08:07.154Z,0.00
2018-08-10T03:09:07.156Z,0.00
2018-08-10T03:10:07.146Z,0.00
2018-08-10T03:11:07.146Z,0.00
2018-08-10T03:12:07.147Z,0.00
2018-08-10T03:13:07.133Z,0.00
2018-08-10T03:14:07.131Z,0.00
2018-08-10T03:15:07.132Z,0.00
2018-08-10T03:16:07.126Z,0.00
2018-08-10T03:17:07.127Z,0.00
2018-08-10T03:18:07.113Z,0.00
2018-08-10T03:19:07.107Z,0.00
2018-08-10T03:20:07.103Z,0.00
2018-08-10T03:21:07.107Z,0.00
2018-08-10T03:22:07.126Z,0.00
2018-08-10T03:23:07.117Z,0.00
2018-08-10T03:24:07.088Z,0.00
2018-08-10T03:25:07.074Z,0.00
2018-08-10T03:26:07.071Z,0.00
2018-08-10T03:27:07.073Z,0.00
2018-08-10T03:28:07.071Z,0.00
2018-08-10T03:29:07.059Z,0.00
2018-08-10T03:30:07.062Z,0.00
2018-08-10T03:31:07.045Z,0.00
2018-08-10T03:32:07.043Z,0.00
2018-08-10T03:33:07.041Z,0.00
2018-08-10T03:34:07.035Z,0.00
2018-08-10T03:35:07.030Z,4.00
2018-08-10T03:36:07.030Z,4.00
2018-08-10T03:37:07.027Z,4.00
2018-08-10T03:38:07.014Z,4.00
2018-08-10T03:39:07.022Z,8.00
2018-08-10T03:40:07.002Z,4.00
2018-08-10T03:41:06.995Z,8.00
2018-08-10T03:42:06.996Z,8.00
2018-08-10T03:43:06.992Z,12.00
2018-08-10T03:44:06.982Z,12.00
2018-08-10T03:45:06.983Z,20.00
2018-08-10T03:46:06.974Z,20.00
2018-08-10T03:47:06.972Z,20.00
2018-08-10T03:48:06.962Z,24.00
2018-08-10T03:49:06.963Z,28.00
2018-08-10T03:50:06.962Z,36.00
2018-08-10T03:51:06.956Z,36.00
2018-08-10T03:52:06.947Z,44.00
2018-08-10T03:53:06.938Z,48.00
2018-08-10T03:54:06.941Z,56.00
2018-08-10T03:55:06.933Z,60.00
2018-08-10T03:56:06.929Z,68.00
2018-08-10T03:57:06.918Z,64.00
2018-08-10T03:58:06.917Z,68.00
2018-08-10T03:59:06.912Z,80.00
2018-08-10T04:00:06.913Z,92.00
2018-08-10T04:01:06.900Z,108.00
2018-08-10T04:02:06.904Z,120.00
2018-08-10T04:03:06.899Z,136.00
2018-08-10T04:04:06.891Z,144.00
2018-08-10T04:05:06.884Z,164.00
2018-08-10T04:06:06.876Z,176.00
2018-08-10T04:07:06.871Z,192.00
2018-08-10T04:08:06.870Z,208.00
2018-08-10T04:09:06.867Z,224.00
2018-08-10T04:10:06.857Z,244.00
2018-08-10T04:11:06.853Z,256.00
2018-08-10T04:12:06.846Z,268.00
2018-08-10T04:13:06.844Z,292.00
2018-08-10T04:14:06.841Z,312.00
2018-08-10T04:15:06.833Z,332.00
2018-08-10T04:16:06.835Z,356.00
2018-08-10T04:17:06.824Z,376.00
2018-08-10T04:18:06.827Z,396.00
2018-08-10T04:19:06.835Z,424.00
2018-08-10T04:20:06.808Z,448.00
2018-08-10T04:21:06.803Z,476.00
2018-08-10T04:22:06.832Z,508.00
2018-08-10T04:23:06.810Z,540.00
2018-08-10T04:24:06.788Z,564.00
2018-08-10T04:25:06.784Z,596.00
2018-08-10T04:26:06.777Z,628.00
2018-08-10T04:27:06.779Z,664.00
2018-08-10T04:28:06.777Z,692.00
2018-08-10T04:29:06.787Z,720.00
2018-08-10T04:30:06.757Z,752.00
2018-08-10T04:31:06.762Z,780.00
2018-08-10T04:32:06.746Z,816.00
2018-08-10T04:33:06.769Z,852.00
2018-08-10T04:34:06.783Z,884.00
2018-08-10T04:35:14.873Z,912.00
2018-08-10T04:37:02.937Z,972.00
2018-08-10T04:38:01.569Z,1000.00
2018-08-10T04:39:01.574Z,1032.00
2018-08-10T04:40:01.568Z,1068.00
2018-08-10T04:41:01.611Z,1096.00
2018-08-10T04:42:01.536Z,1120.00
2018-08-10T04:43:01.532Z,1136.00
2018-08-10T04:44:01.526Z,1148.00
2018-08-10T04:45:01.523Z,1180.00
2018-08-10T04:46:01.513Z,1228.00
2018-08-10T04:47:01.531Z,1284.00
2018-08-10T04:48:01.513Z,1340.00
2018-08-10T04:49:01.517Z,1388.00
2018-08-10T04:50:02.177Z,1420.00
2018-08-10T04:51:01.526Z,1464.00
2018-08-10T04:52:01.484Z,1512.00
2018-08-10T04:53:01.487Z,1828.00
2018-08-10T04:54:01.473Z,2276.00
2018-08-10T04:55:01.514Z,2144.00
2018-08-10T04:56:01.465Z,1768.00
2018-08-10T04:57:01.483Z,1672.00
2018-08-10T04:58:01.456Z,1700.00
2018-08-10T04:59:01.446Z,1752.00
2018-08-10T05:00:01.447Z,1860.00
2018-08-10T05:01:01.438Z,2232.00
2018-08-10T05:02:01.434Z,2892.00
2018-08-10T05:03:01.425Z,3252.00
2018-08-10T05:04:01.424Z,3328.00
2018-08-10T05:05:01.434Z,3464.00
2018-08-10T05:06:01.418Z,3520.00
2018-08-10T05:07:01.409Z,3656.00
2018-08-10T05:08:01.406Z,3756.00
2018-08-10T05:09:01.400Z,3828.00
2018-08-10T05:10:01.490Z,3932.00
2018-08-10T05:11:01.393Z,4088.00
2018-08-10T05:12:01.386Z,4156.00
2018-08-10T05:13:01.377Z,4252.00
2018-08-10T05:14:01.374Z,4388.00
2018-08-10T05:15:01.397Z,4524.00
2018-08-10T05:16:01.365Z,4548.00
2018-08-10T05:17:01.362Z,4764.00
2018-08-10T05:18:01.361Z,5000.00
2018-08-10T05:19:01.359Z,5104.00
2018-08-10T05:20:01.357Z,5272.00
2018-08-10T05:21:01.344Z,5460.00
2018-08-10T05:22:01.348Z,5572.00
2018-08-10T05:23:01.355Z,5768.00
2018-08-10T05:24:01.348Z,5776.00
2018-08-10T05:25:01.339Z,5936.00
2018-08-10T05:26:01.401Z,6252.00
2018-08-10T05:27:01.316Z,6380.00
2018-08-10T05:28:01.321Z,6476.00
2018-08-10T05:29:01.308Z,6552.00
2018-08-10T05:30:01.309Z,6632.00
2018-08-10T05:31:01.302Z,6692.00
2018-08-10T05:32:01.300Z,6728.00
2018-08-10T05:33:01.292Z,6932.00
2018-08-10T05:34:01.314Z,7064.00
2018-08-10T05:35:01.290Z,7280.00
2018-08-10T05:36:01.287Z,7448.00
2018-08-10T05:37:01.289Z,7672.00
2018-08-10T05:38:01.280Z,7952.00
2018-08-10T05:39:01.275Z,7868.00
2018-08-10T05:40:01.272Z,8284.00
2018-08-10T05:41:01.268Z,8784.00
2018-08-10T05:42:01.262Z,8716.00
2018-08-10T05:43:01.272Z,8016.00
2018-08-10T05:44:01.278Z,7880.00
2018-08-10T05:45:01.255Z,8144.00
2018-08-10T05:46:01.255Z,8728.00
2018-08-10T05:47:01.466Z,9092.00
2018-08-10T05:48:01.264Z,8932.00
2018-08-10T05:49:01.242Z,9076.00
2018-08-10T05:50:01.271Z,9072.00
2018-08-10T05:51:01.417Z,9224.00
2018-08-10T05:52:01.256Z,9424.00
2018-08-10T05:53:01.231Z,9672.00
2018-08-10T05:54:01.232Z,9732.00
2018-08-10T05:55:01.225Z,10124.00
2018-08-10T05:56:01.225Z,10372.00
2018-08-10T05:57:01.222Z,6752.00
2018-08-10T05:58:01.224Z,7968.00
2018-08-10T05:59:01.225Z,10116.00
2018-08-10T06:00:01.218Z,10764.00
2018-08-10T06:01:01.222Z,11468.00
2018-08-10T06:02:01.217Z,11660.00
2018-08-10T06:03:01.206Z,11908.00
2018-08-10T06:04:01.376Z,12064.00
2018-08-10T06:05:01.236Z,12364.00
2018-08-10T06:06:01.203Z,12760.00
2018-08-10T06:07:01.206Z,12616.00
2018-08-10T06:08:01.202Z,12836.00
2018-08-10T06:09:01.196Z,13136.00
2018-08-10T06:10:01.190Z,13152.00
2018-08-10T06:11:01.191Z,13412.00
2018-08-10T06:12:01.193Z,13500.00
2018-08-10T06:13:01.195Z,13948.00
2018-08-10T06:14:01.221Z,14356.00
2018-08-10T06:15:01.193Z,14656.00
2018-08-10T06:16:01.180Z,14364.00
2018-08-10T06:17:01.179Z,14688.00
2018-08-10T06:18:01.180Z,14272.00
2018-08-10T06:19:01.182Z,13776.00
2018-08-10T06:20:01.236Z,9484.00
2018-08-10T06:21:01.177Z,6232.00
2018-08-10T06:22:01.175Z,6076.00
2018-08-10T06:23:01.218Z,3664.00
2018-08-10T06:24:01.171Z,8172.00
2018-08-10T06:25:01.222Z,4312.00
2018-08-10T06:26:01.167Z,4520.00
2018-08-10T06:27:01.171Z,4624.00
2018-08-10T06:28:01.167Z,7880.00
2018-08-10T06:29:01.166Z,7300.00
2018-08-10T06:30:01.162Z,12884.00
2018-08-10T06:31:01.163Z,12208.00
2018-08-10T06:32:01.160Z,16896.00
2018-08-10T06:33:01.159Z,16992.00
2018-08-10T06:34:01.203Z,17920.00
2018-08-10T06:35:01.153Z,18304.00
2018-08-10T06:36:01.157Z,18496.00
2018-08-10T06:37:01.153Z,8644.00
2018-08-10T06:38:01.150Z,19616.00
2018-08-10T06:39:01.150Z,18784.00
2018-08-10T06:40:01.144Z,14272.00
2018-08-10T06:41:01.145Z,9368.00
2018-08-10T06:42:01.148Z,6512.00
2018-08-10T06:43:01.144Z,5372.00
2018-08-10T06:44:01.141Z,6268.00
2018-08-10T06:45:01.228Z,6400.00
2018-08-10T06:46:01.135Z,7240.00
2018-08-10T06:47:01.134Z,5624.00
2018-08-10T06:48:01.151Z,5728.00
2018-08-10T06:49:01.135Z,8000.00
2018-08-10T06:50:03.742Z,10976.00
2018-08-10T06:51:01.209Z,10432.00
2018-08-10T06:52:01.128Z,12672.00
2018-08-10T06:53:01.126Z,15776.00
2018-08-10T06:54:01.129Z,15456.00
2018-08-10T06:55:01.136Z,11228.00
2018-08-10T06:56:01.145Z,10012.00
2018-08-10T06:57:01.162Z,7216.00
2018-08-10T06:58:01.120Z,7728.00
2018-08-10T06:59:01.117Z,7500.00
2018-08-10T07:00:01.114Z,8772.00
2018-08-10T07:01:01.161Z,7704.00
2018-08-10T07:02:01.113Z,8488.00
2018-08-10T07:03:01.112Z,5164.00
2018-08-10T07:04:01.110Z,12000.00
2018-08-10T07:05:01.149Z,10876.00
2018-08-10T07:06:01.109Z,10048.00
2018-08-10T07:07:01.104Z,11208.00
2018-08-10T07:08:01.101Z,17440.00
2018-08-10T07:09:01.097Z,21952.00
2018-08-10T07:10:01.098Z,14144.00
2018-08-10T07:11:01.131Z,15288.00
2018-08-10T07:12:01.755Z,14528.00
2018-08-10T07:13:01.133Z,14048.00
2018-08-10T07:14:01.092Z,26144.00
2018-08-10T07:15:01.084Z,20544.00
2018-08-10T07:16:01.087Z,12080.00
2018-08-10T07:17:01.097Z,17664.00
2018-08-10T07:18:01.083Z,27680.00
2018-08-10T07:19:01.082Z,27520.00
2018-08-10T07:20:01.087Z,27904.00
2018-08-10T07:21:01.078Z,29184.00
2018-08-10T07:22:01.077Z,7556.00
2018-08-10T07:23:01.079Z,6164.00
2018-08-10T07:24:01.078Z,21216.00
2018-08-10T07:25:01.071Z,20448.00
2018-08-10T07:26:01.070Z,30496.00
2018-08-10T07:27:01.121Z,32992.00
2018-08-10T07:28:01.085Z,31968.00
2018-08-10T07:29:01.070Z,33920.00
2018-08-10T07:30:01.066Z,35520.00
2018-08-10T07:31:01.069Z,35392.00
2018-08-10T07:32:01.073Z,36608.00
2018-08-10T07:33:01.067Z,37760.00
2018-08-10T07:34:01.068Z,37408.00
2018-08-10T07:35:01.066Z,37632.00
2018-08-10T07:36:01.069Z,36256.00
2018-08-10T07:37:01.064Z,33472.00
2018-08-10T07:38:01.067Z,33440.00
2018-08-10T07:39:01.068Z,36000.00
2018-08-10T07:40:01.073Z,36640.00
2018-08-10T07:41:01.076Z,37600.00
2018-08-10T07:42:01.068Z,40960.00
2018-08-10T07:43:01.075Z,41216.00
2018-08-10T07:44:01.076Z,39040.00
2018-08-10T07:45:01.090Z,29280.00
2018-08-10T07:46:01.076Z,19136.00
2018-08-10T07:47:01.106Z,18432.00
2018-08-10T07:48:01.085Z,18560.00
2018-08-10T07:49:01.086Z,18592.00
2018-08-10T07:50:01.090Z,17856.00
2018-08-10T07:51:01.086Z,19040.00
2018-08-10T07:52:01.120Z,8584.00
2018-08-10T07:53:01.092Z,20160.00
2018-08-10T07:54:01.093Z,27168.00
2018-08-10T07:55:01.107Z,36896.00
2018-08-10T07:56:01.102Z,40512.00
2018-08-10T07:57:01.105Z,39936.00
2018-08-10T07:58:01.104Z,40000.00
2018-08-10T07:59:01.143Z,41888.00
2018-08-10T08:00:01.112Z,28832.00
2018-08-10T08:01:01.114Z,45632.00
2018-08-10T08:02:01.115Z,45472.00
2018-08-10T08:03:01.127Z,44096.00
2018-08-10T08:04:01.123Z,46880.00
2018-08-10T08:05:01.122Z,48480.00
2018-08-10T08:06:01.182Z,48576.00
2018-08-10T08:07:01.155Z,48800.00
2018-08-10T08:08:01.147Z,52992.00
2018-08-10T08:09:01.138Z,55136.00
2018-08-10T08:10:01.148Z,58272.00
2018-08-10T08:11:01.146Z,58752.00
2018-08-10T08:12:01.164Z,59264.00
2018-08-10T08:13:01.156Z,56160.00
2018-08-10T08:14:01.164Z,28416.00
2018-08-10T08:15:01.167Z,35744.00
2018-08-10T08:16:01.168Z,45344.00
2018-08-10T08:17:01.181Z,26944.00
2018-08-10T08:18:01.266Z,27456.00
2018-08-10T08:19:01.187Z,35168.00
2018-08-10T08:20:01.288Z,22656.00
2018-08-10T08:21:01.180Z,48096.00
2018-08-10T08:22:01.182Z,44576.00
2018-08-10T08:23:01.194Z,53536.00
2018-08-10T08:24:01.198Z,52736.00
2018-08-10T08:25:01.202Z,50464.00
2018-08-10T08:26:01.205Z,49056.00
2018-08-10T08:27:01.265Z,50560.00
2018-08-10T08:28:01.206Z,51104.00
2018-08-10T08:29:01.209Z,49952.00
2018-08-10T08:30:01.212Z,51232.00
2018-08-10T08:31:01.224Z,52320.00
2018-08-10T08:32:01.220Z,50624.00
2018-08-10T08:33:01.223Z,51392.00
2018-08-10T08:34:01.228Z,51776.00
2018-08-10T08:35:01.374Z,52352.00
2018-08-10T08:36:01.245Z,37952.00
2018-08-10T08:37:01.291Z,51072.00
2018-08-10T08:38:01.258Z,52448.00
2018-08-10T08:39:01.263Z,54144.00
2018-08-10T08:40:01.262Z,52576.00
2018-08-10T08:41:01.370Z,52544.00
2018-08-10T08:42:01.257Z,53152.00
2018-08-10T08:43:01.262Z,56192.00
2018-08-10T08:44:01.265Z,57088.00
2018-08-10T08:45:01.269Z,58656.00
2018-08-10T08:46:01.462Z,16452.00
2018-08-10T08:47:01.278Z,56192.00
2018-08-10T08:48:01.287Z,57824.00
2018-08-10T08:49:01.289Z,57664.00
2018-08-10T08:50:01.307Z,58848.00
2018-08-10T08:51:01.299Z,60096.00
2018-08-10T08:52:01.309Z,63104.00
2018-08-10T08:53:01.307Z,18912.00
2018-08-10T08:54:01.335Z,35104.00
2018-08-10T08:55:01.313Z,13212.00
2018-08-10T08:56:01.318Z,61600.00
2018-08-10T08:57:01.328Z,41408.00
2018-08-10T08:58:01.329Z,61248.00
2018-08-10T08:59:01.335Z,61600.00
2018-08-10T09:00:01.354Z,63072.00
2018-08-10T09:01:01.339Z,62272.00
2018-08-10T09:02:01.362Z,49696.00
2018-08-10T09:03:01.357Z,67872.00
2018-08-10T09:04:01.364Z,60512.00
2018-08-10T09:05:01.361Z,45888.00
2018-08-10T09:06:01.362Z,17152.00
2018-08-10T09:07:01.368Z,13388.00
2018-08-10T09:08:01.374Z,8848.00
2018-08-10T09:09:01.381Z,9580.00
2018-08-10T09:10:01.433Z,11304.00
2018-08-10T09:11:01.385Z,13516.00
2018-08-10T09:12:01.382Z,34208.00
2018-08-10T09:13:01.393Z,18624.00
2018-08-10T09:14:01.391Z,24640.00
2018-08-10T09:15:01.403Z,23552.00
2018-08-10T09:16:01.403Z,62400.00
2018-08-10T09:17:01.410Z,21952.00
2018-08-10T09:18:01.403Z,20256.00
2018-08-10T09:19:01.412Z,51008.00
2018-08-10T09:20:01.414Z,18208.00
2018-08-10T09:21:01.414Z,13452.00
2018-08-10T09:22:01.412Z,10532.00
2018-08-10T09:23:01.418Z,10508.00
2018-08-10T09:24:01.420Z,11484.00
2018-08-10T09:25:01.423Z,11368.00
2018-08-10T09:26:01.434Z,15976.00
2018-08-10T09:27:01.526Z,71360.00
2018-08-10T09:28:01.430Z,64960.00
2018-08-10T09:29:01.432Z,14084.00
2018-08-10T09:30:01.433Z,9760.00
2018-08-10T09:31:01.435Z,5796.00
2018-08-10T09:32:01.442Z,5928.00
2018-08-10T09:33:01.437Z,7016.00
2018-08-10T09:34:01.442Z,8232.00
2018-08-10T09:35:01.446Z,67744.00
2018-08-10T09:36:01.447Z,69408.00
2018-08-10T09:37:01.450Z,69504.00
2018-08-10T09:38:01.447Z,8956.00
2018-08-10T09:39:01.449Z,7340.00
2018-08-10T09:40:01.452Z,6144.00
2018-08-10T09:41:01.451Z,4940.00
2018-08-10T09:42:01.476Z,4204.00
2018-08-10T09:43:01.457Z,3636.00
2018-08-10T09:44:01.456Z,3636.00
2018-08-10T09:45:01.464Z,4692.00
2018-08-10T09:46:01.467Z,4148.00
2018-08-10T09:47:01.462Z,4736.00
2018-08-10T09:48:01.460Z,6188.00
2018-08-10T09:49:01.467Z,8180.00
2018-08-10T09:50:01.462Z,12648.00
2018-08-10T09:51:01.498Z,39424.00
2018-08-10T09:52:01.467Z,79360.00
2018-08-10T09:53:01.466Z,70048.00
2018-08-10T09:54:01.470Z,10104.00
2018-08-10T09:55:01.466Z,19712.00
2018-08-10T09:56:01.467Z,81440.00
2018-08-10T09:57:01.470Z,80160.00
2018-08-10T09:58:01.475Z,75744.00
2018-08-10T09:59:01.469Z,76992.00
2018-08-10T10:00:01.471Z,76992.00
2018-08-10T10:01:01.481Z,80192.00
2018-08-10T10:02:01.474Z,81376.00
2018-08-10T10:03:01.478Z,82208.00
2018-08-10T10:04:01.488Z,80672.00
2018-08-10T10:05:01.478Z,80096.00
2018-08-10T10:06:01.486Z,79552.00
2018-08-10T10:07:01.495Z,81920.00
2018-08-10T10:08:01.487Z,10480.00
2018-08-10T10:09:01.513Z,10120.00
2018-08-10T10:10:01.500Z,12324.00
2018-08-10T10:11:01.498Z,14600.00
2018-08-10T10:12:01.506Z,84896.00
2018-08-10T10:13:01.506Z,83680.00
2018-08-10T10:14:01.505Z,82912.00
2018-08-10T10:15:01.524Z,81856.00
2018-08-10T10:16:01.519Z,82688.00
2018-08-10T10:17:01.523Z,85088.00
2018-08-10T10:18:01.530Z,85056.00
2018-08-10T10:19:01.530Z,87104.00
2018-08-10T10:20:01.542Z,85632.00
2018-08-10T10:21:01.604Z,85568.00
2018-08-10T10:22:01.548Z,85888.00
2018-08-10T10:23:01.562Z,87104.00
2018-08-10T10:24:01.546Z,32192.00
2018-08-10T10:25:01.558Z,92704.00
2018-08-10T10:26:01.561Z,50464.00
2018-08-10T10:27:01.567Z,90816.00
2018-08-10T10:28:01.579Z,94656.00
2018-08-10T10:29:01.576Z,53696.00
2018-08-10T10:30:01.579Z,95392.00
2018-08-10T10:31:01.578Z,95520.00
2018-08-10T10:32:01.596Z,90464.00
2018-08-10T10:33:01.590Z,15636.00
2018-08-10T10:34:01.601Z,13532.00
2018-08-10T10:35:01.624Z,12944.00
2018-08-10T10:36:01.626Z,15316.00
2018-08-10T10:37:01.619Z,27616.00
2018-08-10T10:38:01.625Z,93984.00
2018-08-10T10:39:01.632Z,90944.00
2018-08-10T10:40:01.643Z,46208.00
2018-08-10T10:41:01.644Z,90048.00
2018-08-10T10:42:01.641Z,92864.00
2018-08-10T10:43:01.662Z,92064.00
2018-08-10T10:44:01.692Z,94080.00
2018-08-10T10:45:01.681Z,88448.00
2018-08-10T10:46:01.685Z,90976.00
2018-08-10T10:47:01.660Z,84768.00
2018-08-10T10:48:01.670Z,87136.00
2018-08-10T10:49:01.671Z,19168.00
2018-08-10T10:50:01.678Z,93920.00
2018-08-10T10:51:01.750Z,91456.00
2018-08-10T10:52:01.726Z,94144.00
2018-08-10T10:53:01.702Z,91616.00
2018-08-10T10:54:01.700Z,92256.00
2018-08-10T10:55:01.711Z,93440.00
2018-08-10T10:56:01.715Z,94080.00
2018-08-10T10:57:01.804Z,95808.00
2018-08-10T10:58:01.730Z,96128.00
2018-08-10T10:59:01.741Z,93312.00
2018-08-10T11:00:01.741Z,94080.00
2018-08-10T11:01:01.744Z,94592.00
2018-08-10T11:02:01.749Z,91872.00
2018-08-10T11:03:01.754Z,92896.00
2018-08-10T11:04:01.760Z,96064.00
2018-08-10T11:05:01.779Z,20704.00
2018-08-10T11:06:01.808Z,96576.00
2018-08-10T11:07:01.778Z,95712.00
2018-08-10T11:08:01.781Z,95552.00
2018-08-10T11:09:01.792Z,97344.00
2018-08-10T11:10:01.805Z,96672.00
2018-08-10T11:11:01.797Z,94720.00
2018-08-10T11:12:01.804Z,19104.00
2018-08-10T11:13:01.822Z,91552.00
2018-08-10T11:14:01.827Z,89280.00
2018-08-10T11:15:01.846Z,80576.00
2018-08-10T11:16:01.833Z,93024.00
2018-08-10T11:17:01.858Z,84288.00
2018-08-10T11:18:01.888Z,76512.00
2018-08-10T11:19:01.905Z,91296.00
2018-08-10T11:20:01.866Z,37984.00
2018-08-10T11:21:01.859Z,94880.00
2018-08-10T11:22:01.871Z,96032.00
2018-08-10T11:23:01.882Z,93184.00
2018-08-10T11:24:01.895Z,91712.00
2018-08-10T11:25:01.919Z,92448.00
2018-08-10T11:26:02.503Z,92896.00
2018-08-10T11:27:01.908Z,93344.00
2018-08-10T11:28:01.909Z,93888.00
2018-08-10T11:29:01.910Z,93888.00
2018-08-10T11:30:01.919Z,90112.00
2018-08-10T11:31:01.944Z,95008.00
2018-08-10T11:32:01.956Z,91040.00
2018-08-10T11:33:01.942Z,90944.00
2018-08-10T11:34:01.940Z,94720.00
2018-08-10T11:35:01.953Z,21248.00
2018-08-10T11:36:01.969Z,95360.00
2018-08-10T11:37:01.962Z,96672.00
2018-08-10T11:38:01.978Z,99296.00
2018-08-10T11:39:01.990Z,97152.00
2018-08-10T11:40:01.982Z,95168.00
2018-08-10T11:41:01.996Z,96192.00
2018-08-10T11:42:01.996Z,96480.00
2018-08-10T11:43:02.004Z,95872.00
2018-08-10T11:44:02.012Z,92608.00
2018-08-10T11:45:02.063Z,87040.00
2018-08-10T11:46:02.019Z,86400.00
2018-08-10T11:47:02.029Z,93632.00
2018-08-10T11:48:02.030Z,100576.00
2018-08-10T11:49:02.042Z,48544.00
2018-08-10T11:50:02.055Z,24000.00
2018-08-10T11:51:02.050Z,95968.00
2018-08-10T11:52:02.054Z,100576.00
2018-08-10T11:53:02.063Z,95456.00
2018-08-10T11:54:02.071Z,92960.00
2018-08-10T11:55:02.074Z,93984.00
2018-08-10T11:56:02.083Z,94080.00
2018-08-10T11:57:02.088Z,95776.00
2018-08-10T11:58:02.094Z,96576.00
2018-08-10T11:59:02.125Z,99424.00
2018-08-10T12:00:02.139Z,104416.00
2018-08-10T12:01:02.108Z,107488.00
2018-08-10T12:02:02.230Z,28704.00
2018-08-10T12:03:02.137Z,35040.00
2018-08-10T12:04:02.131Z,112416.00
2018-08-10T12:05:02.139Z,45376.00
2018-08-10T12:06:02.290Z,107328.00
2018-08-10T12:07:02.143Z,97888.00
2018-08-10T12:08:02.148Z,99584.00
2018-08-10T12:09:02.155Z,98528.00
2018-08-10T12:10:02.158Z,102336.00
2018-08-10T12:11:02.164Z,98848.00
2018-08-10T12:12:02.171Z,94816.00
2018-08-10T12:13:02.184Z,92288.00
2018-08-10T12:14:02.187Z,91360.00
2018-08-10T12:15:02.188Z,93504.00
2018-08-10T12:16:02.196Z,93600.00
2018-08-10T12:17:02.232Z,93472.00
2018-08-10T12:18:02.207Z,95648.00